createdAt,value
2022-11-24T00:02:21.831Z,5.6
2022-11-24T00:12:21.646Z,5.4
2022-11-24T00:22:21.598Z,5.3
2022-11-24T00:32:21.592Z,5.1
2022-11-24T00:42:21.621Z,5
2022-11-24T00:52:21.556Z,4.7
2022-11-24T01:02:21.619Z,4.6
2022-11-24T01:12:21.577Z,4.6
2022-11-24T01:22:21.535Z,4.6
2022-11-24T01:32:21.517Z,4.3
2022-11-24T01:42:21.553Z,4.4
2022-11-24T01:52:21.504Z,4.6
2022-11-24T02:02:21.527Z,4.6
2022-11-24T02:12:21.508Z,4.4
2022-11-24T02:22:21.471Z,4.3
2022-11-24T02:32:21.454Z,4.3
2022-11-24T02:42:21.488Z,4.4
2022-11-24T02:52:21.445Z,4.4
2022-11-24T03:02:21.492Z,4.6
2022-11-24T03:12:21.454Z,4.6
2022-11-24T03:22:21.446Z,4.7
2022-11-24T03:32:21.396Z,4.8
2022-11-24T03:42:21.411Z,4.8
2022-11-24T03:52:21.405Z,5
2022-11-24T04:02:21.398Z,5
2022-11-24T04:12:21.345Z,5
2022-11-24T04:22:21.390Z,4.9
2022-11-24T04:32:21.318Z,4.9
2022-11-24T04:42:21.311Z,4.9
2022-11-24T04:52:21.347Z,5
2022-11-24T05:02:21.321Z,4.9
2022-11-24T05:12:21.279Z,4.9
2022-11-24T05:22:21.335Z,4.9
2022-11-24T05:32:21.285Z,5
2022-11-24T05:42:21.305Z,5
2022-11-24T05:52:21.324Z,5
2022-11-24T06:02:21.365Z,5.1
2022-11-24T06:12:21.236Z,5
2022-11-24T06:22:21.272Z,5
2022-11-24T06:32:21.224Z,5
2022-11-24T06:42:21.224Z,5
2022-11-24T06:52:21.242Z,5
2022-11-24T07:02:21.208Z,5.1
2022-11-24T07:12:21.194Z,5.1
2022-11-24T07:22:21.204Z,5.2
2022-11-24T07:32:21.215Z,5.2
2022-11-24T07:42:21.154Z,5.3
2022-11-24T07:52:21.158Z,5.3
2022-11-24T08:02:21.104Z,5.3
2022-11-24T08:12:21.154Z,5.6
2022-11-24T08:22:21.111Z,5.9
2022-11-24T08:32:22.607Z,6.2
2022-11-24T08:42:21.092Z,6.5
2022-11-24T08:52:21.095Z,7
2022-11-24T09:02:21.054Z,7.3
2022-11-24T09:12:21.056Z,7.4
2022-11-24T09:22:21.067Z,7.6
2022-11-24T09:32:21.000Z,7.8
2022-11-24T09:42:21.030Z,8.2
2022-11-24T09:52:21.002Z,8.7
2022-11-24T10:02:20.951Z,8.9
2022-11-24T10:12:20.967Z,9.1
2022-11-24T10:22:20.982Z,9.4
2022-11-24T10:32:20.912Z,9.8
2022-11-24T10:42:20.956Z,10.3
2022-11-24T10:52:20.908Z,10.5
2022-11-24T11:02:20.934Z,10.7
2022-11-24T11:12:42.803Z,11.6
2022-11-24T11:22:20.909Z,12.3
2022-11-24T11:42:45.399Z,12.9
2022-11-24T11:52:20.827Z,13.6
2022-11-24T12:02:20.969Z,13.9
2022-11-24T12:12:20.786Z,13.6
2022-11-24T12:22:20.770Z,13
2022-11-24T12:32:20.720Z,12.7
2022-11-24T12:42:20.727Z,12.7
2022-11-24T12:52:20.700Z,12.9
2022-11-24T13:02:20.701Z,13.3
2022-11-24T13:12:20.686Z,13.8
2022-11-24T13:22:20.618Z,14.3
2022-11-24T13:32:20.639Z,14.9
2022-11-24T13:42:42.897Z,14.9
2022-11-24T13:52:20.582Z,14.7
2022-11-24T14:02:20.676Z,14.2
2022-11-24T14:12:20.566Z,13.8
2022-11-24T14:22:20.531Z,13.6
2022-11-24T14:32:20.494Z,13.3
2022-11-24T14:42:20.512Z,13.1
2022-11-24T14:52:20.457Z,12.7
2022-11-24T15:02:20.522Z,12.5
2022-11-24T15:12:20.472Z,12.3
2022-11-24T15:22:20.416Z,11.7
2022-11-24T15:32:20.401Z,10.8
2022-11-24T15:42:20.431Z,10
2022-11-24T15:52:20.366Z,9.4
2022-11-24T16:02:20.432Z,8.8
2022-11-24T16:12:20.386Z,8.4
2022-11-24T16:22:20.344Z,8
2022-11-24T16:32:20.316Z,7.6
2022-11-24T16:42:20.325Z,7.3
2022-11-24T16:52:20.321Z,7.2
2022-11-24T17:02:20.320Z,7
2022-11-24T17:12:20.325Z,6.9
2022-11-24T17:22:20.297Z,6.7
2022-11-24T17:32:20.278Z,6.5
2022-11-24T17:42:20.213Z,6.5
2022-11-24T17:52:20.255Z,6.5
2022-11-24T18:02:20.315Z,6.4
2022-11-24T18:12:20.209Z,6.3
2022-11-24T18:22:36.753Z,6.3
2022-11-24T18:32:20.250Z,6.3
2022-11-24T18:42:20.175Z,6.3
2022-11-24T18:52:20.198Z,6.2
2022-11-24T19:02:20.169Z,6.3
2022-11-24T19:12:20.134Z,6.3
2022-11-24T19:22:20.152Z,6.3
2022-11-24T19:32:20.082Z,6.4
2022-11-24T19:42:20.072Z,6.4
2022-11-24T19:52:20.104Z,6.3
2022-11-24T20:02:20.138Z,6.1
2022-11-24T20:12:20.082Z,5.9
2022-11-24T20:22:20.083Z,5.8
2022-11-24T20:32:19.999Z,5.8
2022-11-24T20:42:20.012Z,5.8
2022-11-24T20:52:20.041Z,5.8
2022-11-24T21:02:20.040Z,5.8
2022-11-24T21:12:20.002Z,5.7
2022-11-24T21:22:20.022Z,5.8
2022-11-24T21:32:19.932Z,5.8
2022-11-24T21:42:19.938Z,5.8
2022-11-24T21:52:19.974Z,5.7
2022-11-24T22:02:19.996Z,5.7
2022-11-24T22:12:19.923Z,5.6
2022-11-24T22:22:19.941Z,5.4
2022-11-24T22:32:19.876Z,5.4
2022-11-24T22:42:19.918Z,5.5
2022-11-24T22:52:19.888Z,5.6
2022-11-24T23:02:19.851Z,5.6
2022-11-24T23:12:19.824Z,5.6
2022-11-24T23:22:20.653Z,5.6
2022-11-24T23:32:19.791Z,5.7
2022-11-24T23:42:19.833Z,5.6
2022-11-24T23:52:19.833Z,5.6
